To NAV CANADA Home Page Login to a new session Search on AWWS site Disclaimer Vers la page française équivalente Tips FAQ What's new on the site To the Forecasts and Observations / NOTAM section To "File a Flight Plan" website Publications and other links Update of the User's profile FIC Telephone Numbers My Weather Data Folder Route Weather Data Regional Weather Data Local Weather Data To the Forecasts and Observations / NOTAM section
Request Generated 10/19/2018 at 15:26:55 UTC . Weather information available at that time is displayed.

METAR/TAF

MATAGAMI/QC    (show WxCam)

METAR CYNM 191500Z AUTO 19007KT 9SM BKN190 BKN210 02/01 A2951 RMK SLP008=
METAR CYNM 191400Z AUTO 19008KT 9SM BKN160 BKN200 01/00 A2955 RMK SLP022=
METAR CYNM 191300Z AUTO 17006KT 9SM FEW190 M01/M02 A2957 RMK SLP032=

CYNM - No TAF is issued for this station

Your time UTC time
Weather data provided by Environment Canada and NAV CANADA